Time;durP1;ratioP1;P1;durP2;ratioP2;P2;SDS_P1;SDS_P2;PMS_P1;PMS_P2;Temp;Humidity;BMP_temperature;BMP_pressure;BME280_temperature;BME280_humidity;BME280_pressure;Samples;Min_cycle;Max_cycle;Signal;HPM_P1;HPM_P2
2021/08/25 00:00:36;;;;;;;8.52;5.95;;;19.40;60.30;;;;;;6220186;23;20464;-88
2021/08/25 00:03:02;;;;;;;6.20;5.40;;;19.40;60.20;;;;;;6246485;23;20026;-88
2021/08/25 00:05:28;;;;;;;7.03;5.65;;;19.50;60.20;;;;;;6246807;23;19992;-88
2021/08/25 00:07:54;;;;;;;6.80;5.53;;;19.60;60.20;;;;;;6246798;23;20050;-88
2021/08/25 00:10:20;;;;;;;7.10;5.82;;;19.60;60.00;;;;;;6219981;23;20450;-88
2021/08/25 00:12:45;;;;;;;6.75;5.28;;;19.60;60.40;;;;;;6219874;23;20008;-88
2021/08/25 00:15:11;;;;;;;7.97;5.38;;;19.70;59.50;;;;;;6246551;23;19996;-88
2021/08/25 00:17:37;;;;;;;6.78;5.18;;;19.80;59.40;;;;;;6219974;23;20004;-88
2021/08/25 00:20:04;;;;;;;6.40;5.03;;;19.80;59.10;;;;;;6219623;23;20044;-88
2021/08/25 00:22:30;;;;;;;5.35;4.57;;;19.90;58.70;;;;;;6245268;23;20323;-88
2021/08/25 00:24:55;;;;;;;7.28;5.38;;;19.90;58.70;;;;;;6219821;23;19997;-88
2021/08/25 00:27:21;;;;;;;7.05;5.43;;;19.80;58.70;;;;;;6219896;23;20000;-88
2021/08/25 00:29:47;;;;;;;5.55;4.60;;;19.80;58.60;;;;;;6246595;23;20000;-88
2021/08/25 00:32:12;;;;;;;8.57;5.05;;;19.80;58.40;;;;;;6246750;23;20454;-88
2021/08/25 00:34:38;;;;;;;7.93;4.95;;;19.80;58.40;;;;;;6219714;22;20004;-88
2021/08/25 00:37:04;;;;;;;6.63;5.43;;;19.80;58.50;;;;;;6246682;23;19996;-88
2021/08/25 00:39:29;;;;;;;7.43;4.88;;;19.80;58.70;;;;;;6219702;23;20082;-88
2021/08/25 00:41:55;;;;;;;7.97;5.28;;;19.80;58.70;;;;;;6246673;23;20058;-88
2021/08/25 00:44:21;;;;;;;5.88;4.78;;;19.80;58.70;;;;;;6245230;23;20007;-88
2021/08/25 00:46:47;;;;;;;7.97;4.90;;;19.80;58.70;;;;;;6220284;23;20427;-88
2021/08/25 00:49:22;;;;;;;6.63;5.72;;;19.80;58.50;;;;;;6219834;23;20309;-88
2021/08/25 00:51:49;;;;;;;6.38;5.20;;;19.80;58.60;;;;;;6244917;23;20436;-88
2021/08/25 00:54:15;;;;;;;6.70;4.72;;;19.80;58.60;;;;;;6219649;23;20055;-88
2021/08/25 00:56:46;;;;;;;6.10;4.72;;;19.80;58.90;;;;;;6245904;23;20075;-88
2021/08/25 00:59:13;;;;;;;6.70;4.68;;;19.80;58.80;;;;;;6246194;23;20001;-88
2021/08/25 01:02:01;;;;;;;7.15;5.28;;;19.80;58.70;;;;;;6244615;23;20070;-88
2021/08/25 01:04:39;;;;;;;7.50;5.07;;;19.90;58.90;;;;;;6244740;23;20432;-88
2021/08/25 01:07:06;;;;;;;6.70;4.75;;;19.90;59.00;;;;;;6220284;23;20028;-88
2021/08/25 01:09:35;;;;;;;5.93;4.97;;;19.90;59.20;;;;;;6245993;23;20007;-88
2021/08/25 01:12:01;;;;;;;5.85;5.18;;;19.90;59.30;;;;;;6218942;23;20043;-88
2021/08/25 01:14:28;;;;;;;6.35;5.50;;;19.90;59.40;;;;;;6219658;23;20058;-88
2021/08/25 01:16:56;;;;;;;6.68;5.18;;;19.90;59.60;;;;;;6219586;23;20015;-88
2021/08/25 01:19:23;;;;;;;7.03;5.93;;;19.90;59.60;;;;;;6245298;23;20055;-88
2021/08/25 01:21:49;;;;;;;6.60;5.45;;;19.90;59.80;;;;;;6244521;23;20011;-88
2021/08/25 01:24:17;;;;;;;8.02;5.50;;;19.90;60.00;;;;;;6219631;23;20050;-88
2021/08/25 01:26:45;;;;;;;8.13;5.25;;;19.90;60.10;;;;;;6247238;23;20022;-88
2021/08/25 01:29:31;;;;;;;7.50;5.80;;;19.90;60.10;;;;;;6246731;23;20009;-88
2021/08/25 01:31:57;;;;;;;6.28;5.32;;;19.90;60.30;;;;;;6248625;23;20004;-88
2021/08/25 01:34:23;;;;;;;7.80;5.13;;;19.90;60.40;;;;;;6221367;23;20003;-88
2021/08/25 01:36:55;;;;;;;7.18;5.35;;;19.90;60.50;;;;;;6221579;23;20008;-88
2021/08/25 01:39:21;;;;;;;6.65;5.32;;;19.80;60.70;;;;;;6248207;23;20435;-88
2021/08/25 01:41:48;;;;;;;7.10;5.57;;;19.80;60.90;;;;;;6246618;23;20035;-88
2021/08/25 01:44:14;;;;;;;7.28;5.57;;;19.80;61.00;;;;;;6246142;23;20058;-88
2021/08/25 01:46:42;;;;;;;5.93;5.20;;;19.90;61.10;;;;;;6221768;23;20183;-88
2021/08/25 01:49:09;;;;;;;5.50;4.80;;;19.90;61.00;;;;;;6247752;23;20000;-88
2021/08/25 01:51:38;;;;;;;8.63;6.18;;;19.90;61.50;;;;;;6220763;23;20008;-88
2021/08/25 01:54:04;;;;;;;7.50;5.25;;;19.90;60.90;;;;;;6246306;23;20420;-88
2021/08/25 01:56:30;;;;;;;8.23;6.05;;;19.90;60.90;;;;;;6246388;23;20028;-88
2021/08/25 01:58:57;;;;;;;9.68;6.25;;;19.90;60.90;;;;;;6221231;23;20011;-88
2021/08/25 02:01:23;;;;;;;5.40;4.70;;;19.80;60.40;;;;;;6248086;23;20027;-88
2021/08/25 02:03:49;;;;;;;6.07;5.00;;;19.80;60.40;;;;;;6221112;23;20412;-88
2021/08/25 02:06:14;;;;;;;7.18;5.40;;;19.70;60.50;;;;;;6247816;23;19999;-88
2021/08/25 02:08:40;;;;;;;10.43;5.55;;;19.60;60.60;;;;;;6247571;23;20419;-88
2021/08/25 02:11:06;;;;;;;7.72;6.32;;;19.60;60.60;;;;;;6247773;23;20434;-88
2021/08/25 02:13:32;;;;;;;8.70;6.53;;;19.50;60.80;;;;;;6220841;23;20066;-88
2021/08/25 02:15:57;;;;;;;10.07;7.20;;;19.40;60.70;;;;;;6220945;23;20009;-88
2021/08/25 02:18:23;;;;;;;8.32;6.68;;;19.30;60.80;;;;;;6221053;23;20407;-88
2021/08/25 02:20:49;;;;;;;7.25;6.18;;;19.20;61.10;;;;;;6221286;23;20004;-88
2021/08/25 02:23:15;;;;;;;7.60;6.75;;;19.20;61.30;;;;;;6247667;23;20423;-88
2021/08/25 02:25:40;;;;;;;8.48;6.85;;;19.10;61.40;;;;;;6220788;23;20008;-88
2021/08/25 02:28:06;;;;;;;8.98;6.68;;;19.10;61.50;;;;;;6247792;23;20000;-88
2021/08/25 02:30:33;;;;;;;8.93;6.22;;;19.10;61.60;;;;;;6247672;23;20455;-88
2021/08/25 02:32:59;;;;;;;9.95;7.95;;;19.00;61.60;;;;;;6221063;23;20004;-88
2021/08/25 02:35:24;;;;;;;10.07;8.80;;;19.00;61.60;;;;;;6246044;22;20000;-88
2021/08/25 02:37:50;;;;;;;9.75;7.78;;;18.90;61.60;;;;;;6220350;23;20016;-88
2021/08/25 02:40:16;;;;;;;11.13;8.18;;;18.90;61.60;;;;;;6220766;23;20161;-88
2021/08/25 02:42:42;;;;;;;11.88;8.70;;;18.80;61.50;;;;;;6247908;23;19996;-88
2021/08/25 02:45:08;;;;;;;11.90;8.43;;;18.80;61.30;;;;;;6220277;23;20016;-88
2021/08/25 02:47:34;;;;;;;11.48;8.35;;;18.80;61.60;;;;;;6247480;23;20078;-88
2021/08/25 02:50:00;;;;;;;10.80;8.73;;;18.80;61.70;;;;;;6247651;23;20371;-88
2021/08/25 02:52:25;;;;;;;9.05;7.78;;;18.70;61.50;;;;;;6247512;23;20066;-88
2021/08/25 02:54:51;;;;;;;10.95;7.90;;;18.80;61.60;;;;;;6220635;23;20008;-88
2021/08/25 02:57:17;;;;;;;10.52;7.50;;;18.80;61.60;;;;;;6220670;23;20000;-88
2021/08/25 02:59:43;;;;;;;11.90;8.20;;;18.80;61.50;;;;;;6220574;23;20031;-88
2021/08/25 03:02:08;;;;;;;9.40;7.68;;;18.80;61.40;;;;;;6220695;23;20008;-88
2021/08/25 03:04:34;;;;;;;11.13;7.72;;;18.80;61.40;;;;;;6220505;23;20032;-88
2021/08/25 03:07:00;;;;;;;16.80;7.50;;;18.90;61.30;;;;;;6220517;23;20005;-88
2021/08/25 03:09:25;;;;;;;11.98;7.47;;;18.90;61.30;;;;;;6220433;23;20038;-88
2021/08/25 03:11:51;;;;;;;9.35;7.63;;;19.00;61.20;;;;;;6220215;23;20000;-88
2021/08/25 03:14:17;;;;;;;9.43;7.65;;;19.00;61.00;;;;;;6220377;23;20001;-88
2021/08/25 03:16:43;;;;;;;9.77;8.25;;;19.10;61.10;;;;;;6246957;23;20007;-88
2021/08/25 03:19:08;;;;;;;9.68;7.63;;;19.10;61.20;;;;;;6220368;23;20011;-88
2021/08/25 03:21:34;;;;;;;9.05;7.30;;;19.20;61.10;;;;;;6220679;23;20028;-88
2021/08/25 03:24:00;;;;;;;9.57;7.10;;;19.30;61.10;;;;;;6220354;23;20006;-88
2021/08/25 03:26:26;;;;;;;9.63;7.78;;;19.40;61.30;;;;;;6246750;23;20002;-88
2021/08/25 03:28:52;;;;;;;10.05;7.40;;;19.40;61.40;;;;;;6246489;23;20011;-88
2021/08/25 03:31:17;;;;;;;9.88;7.88;;;19.50;61.60;;;;;;6220485;23;20008;-88
2021/08/25 03:33:43;;;;;;;10.63;8.85;;;19.50;61.70;;;;;;6247021;23;20000;-88
2021/08/25 03:36:09;;;;;;;11.60;8.35;;;19.60;61.80;;;;;;6220012;23;20327;-88
2021/08/25 03:38:35;;;;;;;11.07;8.75;;;19.60;62.00;;;;;;6219946;23;20078;-87
2021/08/25 03:41:00;;;;;;;11.10;8.05;;;19.60;62.10;;;;;;6220202;23;20016;-88
2021/08/25 03:43:26;;;;;;;10.45;8.05;;;19.70;62.30;;;;;;6246718;23;19996;-88
2021/08/25 03:45:52;;;;;;;11.10;8.68;;;19.70;62.40;;;;;;6246988;23;20024;-88
2021/08/25 03:48:17;;;;;;;12.38;8.50;;;19.70;62.50;;;;;;6220102;23;20008;-88
2021/08/25 03:50:43;;;;;;;11.00;8.88;;;19.70;62.50;;;;;;6219790;23;20331;-88
2021/08/25 03:53:09;;;;;;;12.10;9.30;;;19.70;62.70;;;;;;6245797;23;20008;-88
2021/08/25 03:55:34;;;;;;;11.00;8.63;;;19.70;63.20;;;;;;6247129;23;20024;-88
2021/08/25 03:58:00;;;;;;;12.80;10.13;;;19.60;63.20;;;;;;6246566;23;20036;-88
2021/08/25 04:00:26;;;;;;;16.25;11.20;;;19.60;63.20;;;;;;6220736;23;20004;-88
2021/08/25 04:02:51;;;;;;;12.25;10.73;;;19.50;63.30;;;;;;6221514;23;20011;-88
2021/08/25 04:05:17;;;;;;;14.98;10.63;;;19.50;63.50;;;;;;6220507;23;20000;-88
2021/08/25 04:07:43;;;;;;;12.00;10.25;;;19.40;64.10;;;;;;6254898;23;19996;-88
2021/08/25 04:10:09;;;;;;;17.77;10.50;;;19.40;63.60;;;;;;6264642;23;20004;-88
2021/08/25 04:12:35;;;;;;;11.82;10.52;;;19.40;63.80;;;;;;6264106;23;20038;-88
2021/08/25 04:15:02;;;;;;;16.17;12.07;;;19.40;63.70;;;;;;6227187;23;20004;-88
2021/08/25 04:17:28;;;;;;;15.63;11.30;;;19.40;63.70;;;;;;6221057;23;20004;-88
2021/08/25 04:19:53;;;;;;;17.20;12.23;;;19.40;63.70;;;;;;6220606;23;20038;-88
2021/08/25 04:22:19;;;;;;;14.45;11.90;;;19.40;63.70;;;;;;6220392;23;20481;-88
2021/08/25 04:24:45;;;;;;;19.85;13.05;;;19.40;63.70;;;;;;6220226;23;20400;-88
2021/08/25 04:27:10;;;;;;;17.27;13.00;;;19.40;63.70;;;;;;6220497;23;20082;-87
2021/08/25 04:29:36;;;;;;;18.23;13.80;;;19.40;63.70;;;;;;6220122;23;20047;-88
2021/08/25 04:32:02;;;;;;;17.75;14.23;;;19.40;63.90;;;;;;6246747;23;20012;-88
2021/08/25 04:34:28;;;;;;;17.90;13.15;;;19.40;64.10;;;;;;6246605;23;19996;-88
2021/08/25 04:36:53;;;;;;;16.73;13.23;;;19.40;64.20;;;;;;6246079;22;19996;-88
2021/08/25 04:39:19;;;;;;;18.80;12.63;;;19.50;64.40;;;;;;6246920;23;20053;-87
2021/08/25 04:41:45;;;;;;;15.93;12.93;;;19.50;64.50;;;;;;6220120;23;20015;-88
2021/08/25 04:44:10;;;;;;;17.70;12.65;;;19.50;64.50;;;;;;6219974;23;20008;-88
2021/08/25 04:46:36;;;;;;;19.52;12.43;;;19.60;64.70;;;;;;6220251;23;20013;-88
2021/08/25 04:49:02;;;;;;;19.95;13.35;;;19.60;64.70;;;;;;6219957;23;20419;-88
2021/08/25 04:51:27;;;;;;;17.02;12.38;;;19.70;64.70;;;;;;6246222;23;20010;-88
2021/08/25 04:53:53;;;;;;;19.05;13.20;;;19.70;64.70;;;;;;6219539;23;20446;-87
2021/08/25 04:56:19;;;;;;;16.13;13.38;;;19.80;64.70;;;;;;6246233;23;20003;-87
2021/08/25 04:58:44;;;;;;;17.02;12.65;;;19.90;64.60;;;;;;6247138;23;20004;-87
2021/08/25 05:01:10;;;;;;;18.02;12.93;;;20.00;64.60;;;;;;6220367;23;20008;-87
2021/08/25 05:03:36;;;;;;;16.38;13.25;;;20.10;64.40;;;;;;6248361;23;20415;-88
2021/08/25 05:06:17;;;;;;;17.70;13.95;;;20.30;64.30;;;;;;6247886;23;20367;-88
2021/08/25 05:08:46;;;;;;;18.40;12.68;;;20.30;64.10;;;;;;6221182;23;20332;-88
2021/08/25 05:11:11;;;;;;;17.27;12.77;;;20.40;63.80;;;;;;6248206;23;20031;-88
2021/08/25 05:13:38;;;;;;;16.60;12.57;;;20.50;63.50;;;;;;6221438;23;20004;-88
2021/08/25 05:16:13;;;;;;;19.20;13.52;;;20.50;63.10;;;;;;6220653;23;20090;-88
2021/08/25 05:18:41;;;;;;;19.35;12.18;;;20.60;63.20;;;;;;6248332;23;20034;-88
2021/08/25 05:21:07;;;;;;;16.98;12.98;;;20.50;63.10;;;;;;6222268;23;20020;-88
2021/08/25 05:23:33;;;;;;;20.23;12.52;;;20.50;63.00;;;;;;6248469;23;19992;-88
2021/08/25 05:25:59;;;;;;;20.40;14.43;;;20.50;62.90;;;;;;6248039;23;20323;-88
2021/08/25 05:28:25;;;;;;;17.63;14.07;;;20.50;62.90;;;;;;6221562;23;20022;-88
2021/08/25 05:30:51;;;;;;;20.92;13.38;;;20.50;63.00;;;;;;6248687;23;20014;-88
2021/08/25 05:33:16;;;;;;;18.42;14.60;;;20.50;62.90;;;;;;6220691;23;20012;-88
2021/08/25 05:35:42;;;;;;;16.67;13.75;;;20.50;63.00;;;;;;6220486;23;20455;-88
2021/08/25 05:38:08;;;;;;;21.52;14.70;;;20.60;63.10;;;;;;6247657;23;19996;-88
2021/08/25 05:40:34;;;;;;;18.55;13.73;;;20.60;63.00;;;;;;6220816;23;20067;-88
2021/08/25 05:43:11;;;;;;;19.00;14.77;;;20.70;63.00;;;;;;6247598;23;19996;-88
2021/08/25 05:45:37;;;;;;;22.40;14.38;;;20.70;63.00;;;;;;6219524;23;20084;-87
2021/08/25 05:48:03;;;;;;;20.70;14.90;;;20.80;62.90;;;;;;6220829;23;19996;-88
2021/08/25 05:50:29;;;;;;;19.83;14.45;;;20.90;62.70;;;;;;6247120;23;20012;-88
2021/08/25 05:52:54;;;;;;;20.60;15.20;;;21.00;62.70;;;;;;6220550;23;20035;-88
2021/08/25 05:55:20;;;;;;;22.73;14.93;;;21.00;62.50;;;;;;6220882;23;20000;-88
2021/08/25 05:57:46;;;;;;;16.45;12.02;;;21.00;62.20;;;;;;6220786;23;20326;-88
2021/08/25 06:00:16;;;;;;;19.75;13.07;;;21.00;62.70;;;;;;6247103;23;20079;-87
2021/08/25 06:02:43;;;;;;;14.13;11.20;;;21.00;62.10;;;;;;6220347;23;20000;-88
2021/08/25 06:05:13;;;;;;;20.85;14.00;;;21.00;62.40;;;;;;6220203;23;20005;-88
2021/08/25 06:07:40;;;;;;;17.88;13.15;;;21.10;62.60;;;;;;6220598;23;20031;-88
2021/08/25 06:10:08;;;;;;;14.95;11.55;;;21.10;63.40;;;;;;6220426;23;20027;-88
2021/08/25 06:12:34;;;;;;;14.88;11.77;;;21.00;63.80;;;;;;6220151;23;20304;-88
2021/08/25 06:15:00;;;;;;;13.02;10.15;;;21.00;65.20;;;;;;6246987;23;20007;-88
2021/08/25 06:17:42;;;;;;;13.80;11.38;;;21.00;65.00;;;;;;6221667;23;19997;-88
2021/08/25 06:20:09;;;;;;;14.50;11.25;;;21.00;65.40;;;;;;6245248;23;20499;-88
2021/08/25 06:22:35;;;;;;;15.18;9.98;;;21.10;66.90;;;;;;6247427;23;20122;-87
2021/08/25 06:25:00;;;;;;;11.18;8.73;;;21.10;68.30;;;;;;6247110;23;20055;-88
2021/08/25 06:27:26;;;;;;;12.60;9.40;;;21.00;68.30;;;;;;6246729;23;20316;-88
2021/08/25 06:29:52;;;;;;;11.85;8.70;;;21.10;69.00;;;;;;6247491;23;20064;-88
2021/08/25 06:32:19;;;;;;;10.95;8.75;;;21.10;69.20;;;;;;6220335;23;20045;-88
2021/08/25 06:34:44;;;;;;;11.50;8.23;;;21.20;69.60;;;;;;6247004;22;20000;-88
2021/08/25 06:37:10;;;;;;;10.50;8.30;;;21.30;69.40;;;;;;6220247;23;20403;-88
2021/08/25 06:39:36;;;;;;;11.25;9.00;;;21.40;70.20;;;;;;6220528;23;20013;-87
2021/08/25 06:42:02;;;;;;;9.98;7.88;;;21.50;70.30;;;;;;6247149;23;20008;-88
2021/08/25 06:44:28;;;;;;;11.00;9.00;;;21.50;70.30;;;;;;6219998;23;20288;-87
2021/08/25 06:46:54;;;;;;;8.88;7.00;;;21.60;70.40;;;;;;6246833;23;20007;-86
2021/08/25 06:49:20;;;;;;;9.55;7.97;;;21.70;70.30;;;;;;6244844;23;19996;-87
2021/08/25 06:51:47;;;;;;;9.82;7.90;;;21.70;70.60;;;;;;6219171;23;20005;-87
2021/08/25 06:54:12;;;;;;;10.07;7.72;;;21.70;70.90;;;;;;6219911;23;20089;-87
2021/08/25 06:56:38;;;;;;;10.82;7.68;;;21.70;70.90;;;;;;6246746;23;19992;-87
2021/08/25 06:59:04;;;;;;;11.82;8.05;;;21.70;70.90;;;;;;6219757;23;20011;-87
2021/08/25 07:01:30;;;;;;;10.13;7.63;;;21.70;71.10;;;;;;6218971;23;20012;-87
2021/08/25 07:03:56;;;;;;;10.25;7.95;;;21.70;71.00;;;;;;6245132;23;19993;-94
2021/08/25 07:06:21;;;;;;;11.98;8.38;;;21.80;71.10;;;;;;6219917;23;20011;-89
2021/08/25 07:08:47;;;;;;;11.18;8.02;;;21.80;71.20;;;;;;6245977;23;20004;-89
2021/08/25 07:11:13;;;;;;;10.30;8.98;;;21.90;71.30;;;;;;6245722;23;20107;-89
2021/08/25 07:13:39;;;;;;;11.25;7.75;;;21.90;71.10;;;;;;6245583;23;20004;-88
2021/08/25 07:16:07;;;;;;;9.05;7.20;;;21.90;71.00;;;;;;6217958;23;20009;-88
2021/08/25 07:18:33;;;;;;;8.73;7.72;;;22.00;70.80;;;;;;6219495;23;20379;-88
2021/08/25 07:20:59;;;;;;;10.85;8.27;;;22.00;70.80;;;;;;6246845;23;20474;-87
2021/08/25 07:23:25;;;;;;;10.98;8.57;;;22.00;70.80;;;;;;6218214;23;20030;-87
2021/08/25 07:25:51;;;;;;;8.52;7.63;;;22.00;71.10;;;;;;6218442;23;20015;-88
2021/08/25 07:28:16;;;;;;;9.02;7.53;;;21.90;71.10;;;;;;6219954;23;20043;-87
2021/08/25 07:30:42;;;;;;;11.40;8.73;;;21.90;71.50;;;;;;6217243;23;20050;-88
2021/08/25 07:33:15;;;;;;;10.55;8.27;;;21.90;71.90;;;;;;6216439;23;20004;-88
2021/08/25 07:35:41;;;;;;;11.25;7.68;;;21.90;72.70;;;;;;6218675;23;20077;-87
2021/08/25 07:38:07;;;;;;;9.80;7.45;;;21.90;72.00;;;;;;6218645;23;20027;-88
2021/08/25 07:40:33;;;;;;;10.20;7.38;;;21.90;72.20;;;;;;6219347;23;20011;-88
2021/08/25 07:42:59;;;;;;;12.25;9.38;;;21.90;72.20;;;;;;6245887;23;20416;-88
2021/08/25 07:45:24;;;;;;;11.00;9.15;;;21.90;73.20;;;;;;6218928;23;20020;-88
2021/08/25 07:47:50;;;;;;;10.57;7.53;;;21.90;72.90;;;;;;6219537;23;20380;-87
2021/08/25 07:50:16;;;;;;;9.88;7.47;;;21.90;72.70;;;;;;6219592;23;20008;-88
2021/08/25 07:52:42;;;;;;;10.95;8.38;;;21.90;72.70;;;;;;6219780;23;20031;-88
2021/08/25 07:55:08;;;;;;;9.68;8.32;;;21.90;72.90;;;;;;6219357;23;20011;-88
2021/08/25 07:57:34;;;;;;;12.40;10.15;;;21.90;73.40;;;;;;6244559;23;20004;-88
2021/08/25 08:00:00;;;;;;;13.35;10.45;;;21.80;74.40;;;;;;6246533;23;20085;-88
2021/08/25 08:02:25;;;;;;;12.98;10.32;;;21.80;75.20;;;;;;6219908;23;20004;-88
2021/08/25 08:04:51;;;;;;;14.65;10.80;;;21.70;75.30;;;;;;6219223;23;20016;-87
2021/08/25 08:07:17;;;;;;;11.82;9.43;;;21.70;75.50;;;;;;6218583;23;20051;-88
2021/08/25 08:09:43;;;;;;;14.15;12.38;;;21.70;76.20;;;;;;6246195;23;20499;-88
2021/08/25 08:12:09;;;;;;;13.05;10.93;;;21.70;76.40;;;;;;6194447;23;20016;-88
2021/08/25 08:14:34;;;;;;;12.98;10.70;;;21.70;75.80;;;;;;6219095;23;20001;-87
2021/08/25 08:17:02;;;;;;;13.18;10.07;;;21.60;75.70;;;;;;6219706;23;20441;-87
2021/08/25 08:19:33;;;;;;;12.02;10.23;;;21.60;75.30;;;;;;6246593;23;19996;-88
2021/08/25 08:22:00;;;;;;;24.50;9.73;;;21.60;74.70;;;;;;6246871;23;20004;-88
2021/08/25 08:24:27;;;;;;;14.73;9.20;;;21.70;74.70;;;;;;6219192;23;20091;-88
2021/08/25 08:26:53;;;;;;;10.10;8.20;;;21.70;74.20;;;;;;6244455;23;20083;-88
2021/08/25 08:29:19;;;;;;;15.48;9.80;;;21.80;73.80;;;;;;6218966;23;20034;-88
2021/08/25 08:31:45;;;;;;;14.32;9.23;;;21.90;73.40;;;;;;6244529;23;20011;-89
2021/08/25 08:34:11;;;;;;;11.10;8.77;;;21.90;73.30;;;;;;6218928;23;20008;-89
2021/08/25 08:36:36;;;;;;;10.65;9.18;;;21.90;73.70;;;;;;6246699;22;20003;-87
2021/08/25 08:39:03;;;;;;;13.82;10.93;;;21.90;74.10;;;;;;6221298;23;20001;-89
2021/08/25 08:41:29;;;;;;;11.55;9.63;;;21.90;73.90;;;;;;6246554;23;20103;-88
2021/08/25 08:43:56;;;;;;;11.75;10.48;;;21.70;74.00;;;;;;6220709;23;20029;-88
2021/08/25 08:46:23;;;;;;;12.20;9.75;;;21.70;74.90;;;;;;6247306;23;20036;-87
2021/08/25 08:48:52;;;;;;;10.57;8.82;;;21.50;75.50;;;;;;6220742;23;20104;-88
2021/08/25 08:51:21;;;;;;;12.00;8.85;;;21.40;75.70;;;;;;6221483;23;20008;-88
2021/08/25 08:53:48;;;;;;;13.40;10.77;;;21.40;76.10;;;;;;6221740;23;20004;-88
2021/08/25 08:56:14;;;;;;;10.98;9.85;;;21.30;76.60;;;;;;6221664;23;20024;-88
2021/08/25 08:58:41;;;;;;;14.63;12.30;;;21.30;76.70;;;;;;6246222;23;20419;-88
2021/08/25 09:01:07;;;;;;;11.63;9.93;;;21.30;77.10;;;;;;6246237;23;20416;-89
2021/08/25 09:03:38;;;;;;;13.43;10.48;;;21.20;77.20;;;;;;6220706;23;20000;-87
2021/08/25 09:06:06;;;;;;;11.52;9.32;;;21.20;77.40;;;;;;6221611;23;20000;-88
2021/08/25 09:08:35;;;;;;;12.38;9.40;;;21.20;77.30;;;;;;6251609;23;20018;-88
2021/08/25 09:11:12;;;;;;;11.80;9.52;;;21.20;77.60;;;;;;6222595;23;20018;-88
2021/08/25 09:13:48;;;;;;;11.68;9.65;;;21.20;77.40;;;;;;6246752;23;20047;-88
2021/08/25 09:16:34;;;;;;;11.32;9.05;;;21.20;77.40;;;;;;6222975;23;20008;-87
2021/08/25 09:19:06;;;;;;;12.32;9.00;;;21.30;77.50;;;;;;6224876;23;20378;-87
2021/08/25 09:21:34;;;;;;;12.68;8.82;;;21.30;77.40;;;;;;6250155;23;20008;-87
2021/08/25 09:24:00;;;;;;;11.68;8.80;;;21.30;77.50;;;;;;6246222;23;20052;-90
2021/08/25 09:26:26;;;;;;;10.65;9.13;;;21.40;77.70;;;;;;6250484;23;19992;-90
2021/08/25 09:28:52;;;;;;;12.00;9.80;;;21.40;77.90;;;;;;6248540;23;20008;-89
2021/08/25 09:31:20;;;;;;;12.18;10.45;;;21.40;78.30;;;;;;6247714;23;20043;-90
2021/08/25 09:33:48;;;;;;;13.68;10.95;;;21.30;78.70;;;;;;6222230;23;20000;-89
2021/08/25 09:36:17;;;;;;;11.82;9.95;;;21.20;78.80;;;;;;6223538;23;20035;-90
2021/08/25 09:39:20;;;;;;;11.93;9.40;;;21.10;79.50;;;;;;6246517;23;20474;-91
2021/08/25 09:42:21;;;;;;;11.73;9.88;;;21.20;80.80;;;;;;6219930;23;20099;-89
2021/08/25 09:45:15;;;;;;;9.90;8.20;;;21.20;80.00;;;;;;6214576;23;20020;-89
2021/08/25 09:47:50;;;;;;;13.10;9.55;;;21.30;79.60;;;;;;6243925;23;20008;-89
2021/08/25 09:50:24;;;;;;;9.73;7.70;;;21.50;79.10;;;;;;6248808;23;20012;-90
2021/08/25 09:52:51;;;;;;;9.18;7.75;;;21.70;78.60;;;;;;6246511;23;20000;-90
2021/08/25 09:55:38;;;;;;;9.93;7.57;;;21.90;77.90;;;;;;6257254;23;20075;-89
2021/08/25 09:58:13;;;;;;;10.73;7.45;;;22.20;77.30;;;;;;6233453;23;20446;-91
2021/08/25 10:00:43;;;;;;;9.25;7.30;;;22.50;76.40;;;;;;6258788;23;20004;-89
2021/08/25 10:03:09;;;;;;;9.73;8.20;;;22.70;75.70;;;;;;6250191;23;20083;-89
2021/08/25 10:05:35;;;;;;;10.00;8.05;;;22.80;75.10;;;;;;6221203;23;20080;-89
2021/08/25 10:08:04;;;;;;;10.55;8.13;;;23.00;74.70;;;;;;6220095;23;20005;-89
2021/08/25 10:10:30;;;;;;;9.05;7.32;;;23.20;74.10;;;;;;6220518;23;20013;-88
2021/08/25 10:12:56;;;;;;;10.07;7.43;;;23.40;73.50;;;;;;6219970;23;20004;-88
2021/08/25 10:15:44;;;;;;;10.55;8.50;;;23.50;72.70;;;;;;6218984;23;20061;-89
2021/08/25 10:18:30;;;;;;;9.77;7.40;;;23.70;71.90;;;;;;6219234;23;20036;-89
2021/08/25 10:20:58;;;;;;;10.45;8.13;;;23.90;71.10;;;;;;6246364;23;20087;-89
2021/08/25 10:23:59;;;;;;;9.50;7.45;;;24.00;70.80;;;;;;6219308;23;20008;-90
2021/08/25 10:26:29;;;;;;;9.77;7.55;;;24.20;69.30;;;;;;6220483;23;20005;-90
2021/08/25 10:29:09;;;;;;;12.77;7.68;;;24.40;69.40;;;;;;6235909;23;20000;-90
2021/08/25 10:31:53;;;;;;;11.70;7.50;;;24.60;69.00;;;;;;6243792;23;20117;-89
2021/08/25 10:34:38;;;;;;;10.98;7.22;;;24.80;68.10;;;;;;6219858;23;20376;-89
2021/08/25 10:37:28;;;;;;;8.82;7.32;;;25.00;67.70;;;;;;6245510;23;20011;-90
2021/08/25 10:39:59;;;;;;;10.05;7.75;;;25.30;66.80;;;;;;6244898;23;20450;-90
2021/08/25 10:43:02;;;;;;;11.70;7.78;;;25.50;66.10;;;;;;6218941;23;20004;-89
2021/08/25 10:45:45;;;;;;;9.23;7.20;;;25.70;64.60;;;;;;6091986;23;20118;-89
2021/08/25 10:48:35;;;;;;;9.30;7.50;;;25.80;64.70;;;;;;6231576;23;20008;-88
2021/08/25 10:51:01;;;;;;;15.05;8.13;;;25.90;64.10;;;;;;6244190;23;20015;-90
2021/08/25 10:53:33;;;;;;;16.00;7.53;;;25.90;63.30;;;;;;6217962;23;20012;-88
2021/08/25 10:56:13;;;;;;;7.95;7.15;;;26.00;62.70;;;;;;6216950;23;20013;-89
2021/08/25 10:58:55;;;;;;;8.60;7.47;;;26.10;61.50;;;;;;6222094;23;20050;-89
2021/08/25 11:01:24;;;;;;;11.63;7.20;;;26.10;60.80;;;;;;6216647;23;20018;-88
2021/08/25 11:03:52;;;;;;;8.32;7.13;;;26.10;60.80;;;;;;6216660;23;20003;-89
2021/08/25 11:06:51;;;;;;;8.23;7.40;;;26.10;60.30;;;;;;6221131;23;20012;-91
2021/08/25 11:09:22;;;;;;;8.75;7.05;;;26.10;59.50;;;;;;6244011;23;20089;-90
2021/08/25 11:12:09;;;;;;;8.55;6.63;;;26.20;59.80;;;;;;6244915;23;20004;-91
2021/08/25 11:14:49;;;;;;;8.65;6.57;;;26.30;59.30;;;;;;6241738;23;20071;-90
2021/08/25 11:17:34;;;;;;;;;;;;;;;;;;;;;
2021/08/25 11:20:21;;;;;;;12.52;6.85;;;26.60;58.80;;;;;;6245466;23;20080;-90
2021/08/25 11:22:54;;;;;;;13.25;7.72;;;26.60;58.00;;;;;;6241712;23;20008;-84
2021/08/25 11:25:20;;;;;;;8.70;6.90;;;26.70;57.50;;;;;;6244826;23;20004;-83
2021/08/25 11:27:47;;;;;;;9.65;6.95;;;26.70;57.60;;;;;;6243875;23;20007;-84
2021/08/25 11:30:24;;;;;;;8.20;6.75;;;26.70;57.20;;;;;;6242201;23;20004;-84
2021/08/25 11:33:11;;;;;;;9.40;7.50;;;26.70;57.40;;;;;;6243377;23;20415;-83
2021/08/25 11:36:05;;;;;;;8.75;7.38;;;26.80;56.40;;;;;;6242406;22;20015;-84
2021/08/25 11:38:35;;;;;;;9.15;7.13;;;26.80;56.50;;;;;;6217732;23;20000;-83
2021/08/25 11:41:01;;;;;;;9.07;6.85;;;26.80;56.40;;;;;;6245576;23;20000;-86
2021/08/25 11:43:26;;;;;;;9.48;7.53;;;26.80;56.40;;;;;;6217610;23;20420;-86
2021/08/25 11:45:55;;;;;;;12.77;7.88;;;26.80;56.30;;;;;;6215205;23;20454;-88
2021/08/25 11:48:29;;;;;;;12.77;7.85;;;26.90;56.10;;;;;;6245469;23;20019;-88
2021/08/25 11:50:56;;;;;;;12.75;11.55;;;26.90;56.00;;;;;;6244775;23;20037;-85
2021/08/25 11:53:27;;;;;;;12.35;8.60;;;27.00;56.10;;;;;;6245040;23;20408;-86
2021/08/25 11:55:55;;;;;;;11.90;9.05;;;27.10;56.00;;;;;;6210255;23;20029;-86
2021/08/25 11:58:23;;;;;;;11.45;9.73;;;27.10;55.70;;;;;;6218005;23;20031;-88
2021/08/25 12:00:50;;;;;;;11.32;9.38;;;27.20;55.70;;;;;;6217884;23;20008;-86
2021/08/25 12:03:17;;;;;;;13.57;10.00;;;27.40;56.00;;;;;;6217767;23;19996;-87
2021/08/25 12:05:54;;;;;;;17.33;12.60;;;27.50;55.60;;;;;;6241729;23;20004;-87
2021/08/25 12:08:21;;;;;;;25.17;16.95;;;27.60;55.50;;;;;;6217226;23;20008;-87
2021/08/25 12:11:01;;;;;;;20.42;13.60;;;27.60;55.20;;;;;;6218168;23;20004;-85
2021/08/25 12:13:37;;;;;;;15.85;12.38;;;27.70;55.80;;;;;;6216294;23;20304;-87
2021/08/25 12:16:10;;;;;;;19.15;13.40;;;27.80;55.80;;;;;;6217356;23;20489;-87
2021/08/25 12:18:48;;;;;;;18.30;12.90;;;27.90;55.90;;;;;;6244275;23;20003;-88
2021/08/25 12:21:14;;;;;;;17.75;12.13;;;28.10;55.50;;;;;;6243784;23;20093;-87
2021/08/25 12:23:58;;;;;;;18.38;12.68;;;28.30;55.70;;;;;;6215609;23;20012;-86
2021/08/25 12:26:25;;;;;;;12.32;10.75;;;28.50;55.30;;;;;;6215681;23;20012;-87
2021/08/25 12:28:51;;;;;;;10.50;9.43;;;28.80;55.00;;;;;;6240278;23;20043;-85
2021/08/25 12:31:25;;;;;;;14.48;10.27;;;29.00;54.80;;;;;;6214839;23;20008;-87
2021/08/25 12:34:04;;;;;;;14.23;11.55;;;29.20;54.40;;;;;;6242027;23;20003;-88
2021/08/25 12:36:38;;;;;;;16.60;10.82;;;29.40;53.70;;;;;;6216356;23;20012;-85
2021/08/25 12:39:16;;;;;;;15.30;11.13;;;29.40;53.60;;;;;;6216600;23;20000;-88
2021/08/25 12:41:43;;;;;;;14.13;10.60;;;29.40;52.70;;;;;;6216978;23;20008;-85
2021/08/25 12:44:10;;;;;;;12.50;9.80;;;29.20;53.10;;;;;;6241276;23;20012;-85
2021/08/25 12:46:52;;;;;;;12.73;10.48;;;29.00;53.40;;;;;;6243361;23;20036;-86